sensor_id;sensor_type;location;lat;lon;timestamp;pressure;altitude;pressure_sealevel;temperature;humidity
56668;BME280;42542;48.360;10.958;2022-07-23T00:01:28;96161.91;;;23.70;52.69
56668;BME280;42542;48.360;10.958;2022-07-23T00:04:30;96152.31;;;23.68;52.53
56668;BME280;42542;48.360;10.958;2022-07-23T00:07:32;96163.91;;;23.75;53.81
56668;BME280;42542;48.360;10.958;2022-07-23T00:10:34;96163.91;;;23.75;54.95
56668;BME280;42542;48.360;10.958;2022-07-23T00:13:35;96165.13;;;23.67;56.41
56668;BME280;42542;48.360;10.958;2022-07-23T00:16:37;96166.59;;;23.58;57.50
56668;BME280;42542;48.360;10.958;2022-07-23T00:19:39;96201.97;;;23.53;59.57
56668;BME280;42542;48.360;10.958;2022-07-23T00:22:52;96219.59;;;23.34;60.35
56668;BME280;42542;48.360;10.958;2022-07-23T00:25:55;96242.97;;;23.18;60.18
56668;BME280;42542;48.360;10.958;2022-07-23T00:28:56;96244.03;;;23.06;60.08
56668;BME280;42542;48.360;10.958;2022-07-23T00:31:59;96249.28;;;22.95;60.27
56668;BME280;42542;48.360;10.958;2022-07-23T00:35:00;96249.19;;;22.90;60.21
56668;BME280;42542;48.360;10.958;2022-07-23T00:38:03;96234.59;;;22.85;59.62
56668;BME280;42542;48.360;10.958;2022-07-23T00:41:06;96243.59;;;22.85;56.47
56668;BME280;42542;48.360;10.958;2022-07-23T00:44:25;96248.09;;;22.91;54.30
56668;BME280;42542;48.360;10.958;2022-07-23T00:47:27;96259.25;;;22.90;53.84
56668;BME280;42542;48.360;10.958;2022-07-23T00:50:29;96313.16;;;23.00;53.09
56668;BME280;42542;48.360;10.958;2022-07-23T00:53:31;96326.09;;;23.04;52.33
56668;BME280;42542;48.360;10.958;2022-07-23T00:56:34;96341.16;;;23.07;52.56
56668;BME280;42542;48.360;10.958;2022-07-23T00:59:38;96348.50;;;23.06;53.23
56668;BME280;42542;48.360;10.958;2022-07-23T01:02:40;96356.34;;;23.03;53.66
56668;BME280;42542;48.360;10.958;2022-07-23T01:05:43;96371.97;;;22.95;54.77
56668;BME280;42542;48.360;10.958;2022-07-23T01:08:46;96385.34;;;22.85;56.22
56668;BME280;42542;48.360;10.958;2022-07-23T01:11:48;96387.91;;;22.69;58.51
56668;BME280;42542;48.360;10.958;2022-07-23T01:15:01;96363.94;;;22.47;63.16
56668;BME280;42542;48.360;10.958;2022-07-23T01:18:06;96378.13;;;22.19;63.89
56668;BME280;42542;48.360;10.958;2022-07-23T01:21:12;96344.31;;;21.97;65.10
56668;BME280;42542;48.360;10.958;2022-07-23T01:24:17;96359.38;;;21.81;67.50
56668;BME280;42542;48.360;10.958;2022-07-23T01:27:31;96372.75;;;21.65;69.17
56668;BME280;42542;48.360;10.958;2022-07-23T01:30:36;96368.31;;;21.52;70.46
56668;BME280;42542;48.360;10.958;2022-07-23T01:33:41;96378.03;;;21.41;71.77
56668;BME280;42542;48.360;10.958;2022-07-23T01:36:43;96365.63;;;21.27;72.54
56668;BME280;42542;48.360;10.958;2022-07-23T01:39:46;96355.53;;;21.10;73.57
56668;BME280;42542;48.360;10.958;2022-07-23T01:42:48;96328.94;;;20.93;75.87
56668;BME280;42542;48.360;10.958;2022-07-23T01:45:51;96308.94;;;20.63;76.34
56668;BME280;42542;48.360;10.958;2022-07-23T01:48:54;96296.44;;;20.37;77.43
56668;BME280;42542;48.360;10.958;2022-07-23T01:52:15;96302.78;;;20.18;78.35
56668;BME280;42542;48.360;10.958;2022-07-23T01:55:22;96300.22;;;19.98;80.31
56668;BME280;42542;48.360;10.958;2022-07-23T01:58:25;96284.44;;;19.82;81.51
56668;BME280;42542;48.360;10.958;2022-07-23T02:01:28;96292.22;;;19.78;81.13
56668;BME280;42542;48.360;10.958;2022-07-23T02:04:30;96287.63;;;19.79;81.34
56668;BME280;42542;48.360;10.958;2022-07-23T02:07:43;96268.00;;;19.77;81.89
56668;BME280;42542;48.360;10.958;2022-07-23T02:10:45;96260.75;;;19.71;82.49
56668;BME280;42542;48.360;10.958;2022-07-23T02:13:47;96250.16;;;19.63;83.60
56668;BME280;42542;48.360;10.958;2022-07-23T02:16:49;96245.38;;;19.58;84.05
56668;BME280;42542;48.360;10.958;2022-07-23T02:19:50;96251.44;;;19.54;85.15
56668;BME280;42542;48.360;10.958;2022-07-23T02:22:52;96265.78;;;19.61;85.93
56668;BME280;42542;48.360;10.958;2022-07-23T02:25:54;96278.94;;;19.64;86.51
56668;BME280;42542;48.360;10.958;2022-07-23T02:28:55;96279.94;;;19.69;86.90
56668;BME280;42542;48.360;10.958;2022-07-23T02:31:57;96270.97;;;19.69;87.49
56668;BME280;42542;48.360;10.958;2022-07-23T02:34:59;96283.28;;;19.71;87.62
56668;BME280;42542;48.360;10.958;2022-07-23T02:38:00;96285.34;;;19.69;87.21
56668;BME280;42542;48.360;10.958;2022-07-23T02:41:04;96276.19;;;19.70;87.42
56668;BME280;42542;48.360;10.958;2022-07-23T02:44:06;96269.09;;;19.69;87.59
56668;BME280;42542;48.360;10.958;2022-07-23T02:47:08;96267.03;;;19.65;88.30
56668;BME280;42542;48.360;10.958;2022-07-23T02:50:10;96249.72;;;19.66;88.09
56668;BME280;42542;48.360;10.958;2022-07-23T02:53:13;96228.28;;;19.58;87.96
56668;BME280;42542;48.360;10.958;2022-07-23T02:56:16;96230.78;;;19.59;89.40
56668;BME280;42542;48.360;10.958;2022-07-23T02:59:18;96220.97;;;19.58;89.43
56668;BME280;42542;48.360;10.958;2022-07-23T03:02:21;96216.41;;;19.59;89.40
56668;BME280;42542;48.360;10.958;2022-07-23T03:05:23;96208.69;;;19.56;89.82
56668;BME280;42542;48.360;10.958;2022-07-23T03:08:24;96204.09;;;19.56;89.76
56668;BME280;42542;48.360;10.958;2022-07-23T03:11:27;96214.94;;;19.56;89.79
56668;BME280;42542;48.360;10.958;2022-07-23T03:14:28;96233.72;;;19.58;90.05
56668;BME280;42542;48.360;10.958;2022-07-23T03:17:30;96240.16;;;19.57;89.72
56668;BME280;42542;48.360;10.958;2022-07-23T03:20:32;96231.88;;;19.52;90.08
56668;BME280;42542;48.360;10.958;2022-07-23T03:23:34;96235.16;;;19.54;90.81
56668;BME280;42542;48.360;10.958;2022-07-23T03:26:36;96232.09;;;19.50;90.72
56668;BME280;42542;48.360;10.958;2022-07-23T03:29:38;96221.44;;;19.42;90.14
56668;BME280;42542;48.360;10.958;2022-07-23T03:32:40;96230.41;;;19.42;90.69
56668;BME280;42542;48.360;10.958;2022-07-23T03:35:43;96214.56;;;19.39;91.12
56668;BME280;42542;48.360;10.958;2022-07-23T03:38:57;96208.78;;;19.36;90.34
56668;BME280;42542;48.360;10.958;2022-07-23T03:42:02;96210.84;;;19.34;90.65
56668;BME280;42542;48.360;10.958;2022-07-23T03:45:04;96215.66;;;19.32;89.76
56668;BME280;42542;48.360;10.958;2022-07-23T03:48:06;96226.75;;;19.30;90.49
56668;BME280;42542;48.360;10.958;2022-07-23T03:51:08;96237.59;;;19.30;90.64
56668;BME280;42542;48.360;10.958;2022-07-23T03:54:09;96236.75;;;19.30;90.36
56668;BME280;42542;48.360;10.958;2022-07-23T03:57:11;96232.97;;;19.31;90.47
56668;BME280;42542;48.360;10.958;2022-07-23T04:00:13;96234.44;;;19.27;90.15
56668;BME280;42542;48.360;10.958;2022-07-23T04:03:16;96236.78;;;19.23;90.33
56668;BME280;42542;48.360;10.958;2022-07-23T04:06:18;96242.41;;;19.22;90.43
56668;BME280;42542;48.360;10.958;2022-07-23T04:09:21;96255.34;;;19.20;90.80
56668;BME280;42542;48.360;10.958;2022-07-23T04:12:23;96247.41;;;19.18;90.88
56668;BME280;42542;48.360;10.958;2022-07-23T04:15:26;96244.09;;;19.16;91.08
56668;BME280;42542;48.360;10.958;2022-07-23T04:18:28;96239.72;;;19.15;91.55
56668;BME280;42542;48.360;10.958;2022-07-23T04:21:42;96219.72;;;19.16;91.77
56668;BME280;42542;48.360;10.958;2022-07-23T04:24:43;96204.72;;;19.14;92.12
56668;BME280;42542;48.360;10.958;2022-07-23T04:27:45;96192.25;;;19.06;90.70
56668;BME280;42542;48.360;10.958;2022-07-23T04:30:47;96187.03;;;19.04;90.89
56668;BME280;42542;48.360;10.958;2022-07-23T04:33:50;96179.53;;;19.06;92.30
56668;BME280;42542;48.360;10.958;2022-07-23T04:36:55;96188.88;;;19.10;91.79
56668;BME280;42542;48.360;10.958;2022-07-23T04:39:57;96188.66;;;19.12;91.29
56668;BME280;42542;48.360;10.958;2022-07-23T04:43:00;96195.91;;;19.18;92.32
56668;BME280;42542;48.360;10.958;2022-07-23T04:46:02;96199.03;;;19.22;91.64
56668;BME280;42542;48.360;10.958;2022-07-23T04:49:09;96203.44;;;19.23;91.93
56668;BME280;42542;48.360;10.958;2022-07-23T04:52:11;96199.22;;;19.27;91.45
56668;BME280;42542;48.360;10.958;2022-07-23T04:55:14;96203.59;;;19.28;91.93
56668;BME280;42542;48.360;10.958;2022-07-23T04:58:16;96197.97;;;19.29;92.22
56668;BME280;42542;48.360;10.958;2022-07-23T05:01:18;96202.75;;;19.27;92.07
56668;BME280;42542;48.360;10.958;2022-07-23T05:04:20;96207.75;;;19.30;92.08
56668;BME280;42542;48.360;10.958;2022-07-23T05:07:24;96217.31;;;19.33;90.82
56668;BME280;42542;48.360;10.958;2022-07-23T05:10:25;96211.69;;;19.34;90.57
56668;BME280;42542;48.360;10.958;2022-07-23T05:13:27;96206.06;;;19.36;91.11
56668;BME280;42542;48.360;10.958;2022-07-23T05:16:29;96203.34;;;19.36;91.12
56668;BME280;42542;48.360;10.958;2022-07-23T05:19:36;96205.81;;;19.44;91.54
56668;BME280;42542;48.360;10.958;2022-07-23T05:22:37;96208.09;;;19.47;92.16
56668;BME280;42542;48.360;10.958;2022-07-23T05:25:40;96210.38;;;19.50;92.55
56668;BME280;42542;48.360;10.958;2022-07-23T05:28:42;96207.84;;;19.55;92.79
56668;BME280;42542;48.360;10.958;2022-07-23T05:31:50;96209.69;;;19.61;92.53
56668;BME280;42542;48.360;10.958;2022-07-23T05:34:52;96210.31;;;19.63;92.16
56668;BME280;42542;48.360;10.958;2022-07-23T05:37:54;96202.78;;;19.65;91.40
56668;BME280;42542;48.360;10.958;2022-07-23T05:40:56;96197.38;;;19.65;90.78
56668;BME280;42542;48.360;10.958;2022-07-23T05:43:58;96189.66;;;19.62;90.09
56668;BME280;42542;48.360;10.958;2022-07-23T05:47:01;96190.69;;;19.61;90.32
56668;BME280;42542;48.360;10.958;2022-07-23T05:50:03;96182.34;;;19.63;91.28
56668;BME280;42542;48.360;10.958;2022-07-23T05:53:15;96198.78;;;19.68;90.37
56668;BME280;42542;48.360;10.958;2022-07-23T05:56:36;96196.69;;;19.70;90.24
56668;BME280;42542;48.360;10.958;2022-07-23T05:59:38;96200.03;;;19.72;88.68
56668;BME280;42542;48.360;10.958;2022-07-23T06:02:39;96219.84;;;19.72;88.15
56668;BME280;42542;48.360;10.958;2022-07-23T06:05:43;96232.38;;;19.73;88.19
56668;BME280;42542;48.360;10.958;2022-07-23T06:08:45;96235.88;;;19.74;89.23
56668;BME280;42542;48.360;10.958;2022-07-23T06:11:48;96241.75;;;19.71;88.95
56668;BME280;42542;48.360;10.958;2022-07-23T06:14:50;96275.97;;;19.72;88.83
56668;BME280;42542;48.360;10.958;2022-07-23T06:17:54;96307.91;;;19.70;88.15
56668;BME280;42542;48.360;10.958;2022-07-23T06:20:57;96301.00;;;19.67;88.30
56668;BME280;42542;48.360;10.958;2022-07-23T06:24:01;96304.16;;;19.64;88.28
56668;BME280;42542;48.360;10.958;2022-07-23T06:27:03;96310.00;;;19.61;88.86
56668;BME280;42542;48.360;10.958;2022-07-23T06:30:06;96295.25;;;19.57;89.36
56668;BME280;42542;48.360;10.958;2022-07-23T06:33:11;96302.53;;;19.57;89.88
56668;BME280;42542;48.360;10.958;2022-07-23T06:36:13;96299.38;;;19.60;90.48
56668;BME280;42542;48.360;10.958;2022-07-23T06:39:15;96306.06;;;19.64;91.32
56668;BME280;42542;48.360;10.958;2022-07-23T06:42:21;96300.00;;;19.62;90.68
56668;BME280;42542;48.360;10.958;2022-07-23T06:45:30;96294.16;;;19.65;90.05
56668;BME280;42542;48.360;10.958;2022-07-23T06:48:33;96294.53;;;19.68;90.00
56668;BME280;42542;48.360;10.958;2022-07-23T06:51:37;96291.84;;;19.68;89.79
56668;BME280;42542;48.360;10.958;2022-07-23T06:54:40;96298.25;;;19.74;90.05
56668;BME280;42542;48.360;10.958;2022-07-23T06:57:45;96279.91;;;19.76;90.82
56668;BME280;42542;48.360;10.958;2022-07-23T07:00:50;96279.06;;;19.75;90.86
56668;BME280;42542;48.360;10.958;2022-07-23T07:03:54;96274.88;;;19.79;91.66
56668;BME280;42542;48.360;10.958;2022-07-23T07:06:56;96267.97;;;19.83;92.29
56668;BME280;42542;48.360;10.958;2022-07-23T07:09:57;96272.34;;;19.84;92.28
56668;BME280;42542;48.360;10.958;2022-07-23T07:12:59;96272.56;;;19.83;92.50
56668;BME280;42542;48.360;10.958;2022-07-23T07:16:01;96276.09;;;19.83;93.12
56668;BME280;42542;48.360;10.958;2022-07-23T07:19:02;96275.25;;;19.83;92.94
56668;BME280;42542;48.360;10.958;2022-07-23T07:22:05;96269.00;;;19.82;93.30
56668;BME280;42542;48.360;10.958;2022-07-23T07:25:07;96269.84;;;19.83;93.49
56668;BME280;42542;48.360;10.958;2022-07-23T07:28:09;96276.31;;;19.82;93.16
56668;BME280;42542;48.360;10.958;2022-07-23T07:31:10;96287.78;;;19.84;92.25
56668;BME280;42542;48.360;10.958;2022-07-23T07:34:12;96276.31;;;19.82;92.13
56668;BME280;42542;48.360;10.958;2022-07-23T07:37:14;96293.00;;;19.85;91.96
56668;BME280;42542;48.360;10.958;2022-07-23T07:40:16;96292.78;;;19.87;92.71
56668;BME280;42542;48.360;10.958;2022-07-23T07:43:17;96293.41;;;19.82;92.64
56668;BME280;42542;48.360;10.958;2022-07-23T07:46:19;96288.00;;;19.82;92.64
56668;BME280;42542;48.360;10.958;2022-07-23T07:49:21;96277.94;;;19.89;92.11
56668;BME280;42542;48.360;10.958;2022-07-23T07:52:23;96289.34;;;19.98;93.16
56668;BME280;42542;48.360;10.958;2022-07-23T07:55:24;96314.78;;;20.04;92.65
56668;BME280;42542;48.360;10.958;2022-07-23T07:58:26;96310.59;;;20.08;91.27
56668;BME280;42542;48.360;10.958;2022-07-23T08:01:29;96288.63;;;20.16;92.52
56668;BME280;42542;48.360;10.958;2022-07-23T08:04:30;96274.16;;;20.22;91.70
56668;BME280;42542;48.360;10.958;2022-07-23T08:07:32;96280.81;;;20.26;90.92
56668;BME280;42542;48.360;10.958;2022-07-23T08:10:34;96329.66;;;20.26;89.61
56668;BME280;42542;48.360;10.958;2022-07-23T08:13:35;96312.94;;;20.29;88.98
56668;BME280;42542;48.360;10.958;2022-07-23T08:16:37;96295.84;;;20.28;89.35
56668;BME280;42542;48.360;10.958;2022-07-23T08:19:59;96319.00;;;20.31;90.50
56668;BME280;42542;48.360;10.958;2022-07-23T08:23:06;96330.88;;;20.37;89.07
56668;BME280;42542;48.360;10.958;2022-07-23T08:26:08;96333.97;;;20.40;88.84
56668;BME280;42542;48.360;10.958;2022-07-23T08:29:10;96328.13;;;20.43;88.25
56668;BME280;42542;48.360;10.958;2022-07-23T08:32:11;96329.28;;;20.54;88.41
56668;BME280;42542;48.360;10.958;2022-07-23T08:35:35;96330.00;;;20.67;87.86
56668;BME280;42542;48.360;10.958;2022-07-23T08:38:37;96332.22;;;20.77;85.74
56668;BME280;42542;48.360;10.958;2022-07-23T08:41:39;96343.56;;;20.92;85.48
56668;BME280;42542;48.360;10.958;2022-07-23T08:44:44;96343.00;;;21.09;85.02
56668;BME280;42542;48.360;10.958;2022-07-23T08:47:51;96352.31;;;21.19;83.13
56668;BME280;42542;48.360;10.958;2022-07-23T08:50:56;96353.63;;;21.35;83.08
56668;BME280;42542;48.360;10.958;2022-07-23T08:53:59;96357.63;;;21.51;82.70
56668;BME280;42542;48.360;10.958;2022-07-23T08:57:02;96351.59;;;21.67;81.64
56668;BME280;42542;48.360;10.958;2022-07-23T09:00:05;96353.91;;;21.81;80.80
56668;BME280;42542;48.360;10.958;2022-07-23T09:03:15;96355.63;;;21.94;80.34
56668;BME280;42542;48.360;10.958;2022-07-23T09:06:17;96352.97;;;22.06;79.36
56668;BME280;42542;48.360;10.958;2022-07-23T09:09:20;96352.34;;;22.22;79.04
56668;BME280;42542;48.360;10.958;2022-07-23T09:12:25;96351.47;;;22.40;78.66
56668;BME280;42542;48.360;10.958;2022-07-23T09:15:27;96358.13;;;22.55;78.44
56668;BME280;42542;48.360;10.958;2022-07-23T09:21:36;96350.50;;;22.87;76.05
56668;BME280;42542;48.360;10.958;2022-07-23T09:28:09;96341.28;;;23.12;74.36
56668;BME280;42542;48.360;10.958;2022-07-23T09:31:10;96347.78;;;23.22;74.57
56668;BME280;42542;48.360;10.958;2022-07-23T09:34:15;96340.53;;;23.40;74.05
56668;BME280;42542;48.360;10.958;2022-07-23T09:37:18;96337.34;;;23.54;72.42
56668;BME280;42542;48.360;10.958;2022-07-23T09:40:21;96335.78;;;23.70;71.52
56668;BME280;42542;48.360;10.958;2022-07-23T09:43:27;96337.63;;;23.81;70.66
56668;BME280;42542;48.360;10.958;2022-07-23T09:46:36;96335.91;;;23.92;70.20
56668;BME280;42542;48.360;10.958;2022-07-23T09:49:37;96328.78;;;24.02;69.66
56668;BME280;42542;48.360;10.958;2022-07-23T09:55:45;96329.78;;;24.25;68.01
56668;BME280;42542;48.360;10.958;2022-07-23T09:58:49;96324.59;;;24.40;68.88
56668;BME280;42542;48.360;10.958;2022-07-23T10:01:53;96316.91;;;24.54;68.80
56668;BME280;42542;48.360;10.958;2022-07-23T10:04:56;96320.16;;;24.67;67.05
56668;BME280;42542;48.360;10.958;2022-07-23T10:08:18;96305.47;;;24.73;64.60
56668;BME280;42542;48.360;10.958;2022-07-23T10:11:39;96302.09;;;24.83;64.89
56668;BME280;42542;48.360;10.958;2022-07-23T10:14:58;96310.81;;;24.97;63.09
56668;BME280;42542;48.360;10.958;2022-07-23T10:18:00;96301.94;;;25.06;61.88
56668;BME280;42542;48.360;10.958;2022-07-23T10:21:06;96290.06;;;25.17;60.28
56668;BME280;42542;48.360;10.958;2022-07-23T10:24:20;96302.53;;;25.30;60.26
56668;BME280;42542;48.360;10.958;2022-07-23T10:31:08;96308.03;;;25.52;56.09
56668;BME280;42542;48.360;10.958;2022-07-23T10:34:44;96308.88;;;25.52;55.41
56668;BME280;42542;48.360;10.958;2022-07-23T10:38:15;96309.19;;;25.56;55.34
56668;BME280;42542;48.360;10.958;2022-07-23T10:41:39;96297.84;;;25.64;54.58
56668;BME280;42542;48.360;10.958;2022-07-23T10:44:46;96296.03;;;25.75;55.90
56668;BME280;42542;48.360;10.958;2022-07-23T10:47:49;96300.56;;;25.86;55.54
56668;BME280;42542;48.360;10.958;2022-07-23T10:51:13;96298.25;;;25.99;56.12
56668;BME280;42542;48.360;10.958;2022-07-23T10:54:21;96293.19;;;26.13;55.40
56668;BME280;42542;48.360;10.958;2022-07-23T10:57:25;96295.81;;;26.25;54.69
56668;BME280;42542;48.360;10.958;2022-07-23T11:00:28;96284.34;;;26.28;54.02
56668;BME280;42542;48.360;10.958;2022-07-23T11:03:33;96276.13;;;26.28;54.66
56668;BME280;42542;48.360;10.958;2022-07-23T11:09:51;96281.97;;;26.36;53.15
56668;BME280;42542;48.360;10.958;2022-07-23T11:12:55;96273.75;;;26.36;52.60
56668;BME280;42542;48.360;10.958;2022-07-23T11:19:10;96274.19;;;26.60;53.04
56668;BME280;42542;48.360;10.958;2022-07-23T11:22:35;96264.78;;;26.83;50.94
56668;BME280;42542;48.360;10.958;2022-07-23T11:25:37;96269.09;;;27.06;51.81
56668;BME280;42542;48.360;10.958;2022-07-23T11:28:39;96263.97;;;27.19;51.97
56668;BME280;42542;48.360;10.958;2022-07-23T11:31:55;96264.00;;;27.25;50.99
56668;BME280;42542;48.360;10.958;2022-07-23T11:34:57;96267.38;;;27.37;50.87
56668;BME280;42542;48.360;10.958;2022-07-23T11:38:07;96270.97;;;27.42;50.30
56668;BME280;42542;48.360;10.958;2022-07-23T11:41:09;96251.72;;;27.37;50.30
56668;BME280;42542;48.360;10.958;2022-07-23T11:44:47;96256.91;;;27.29;51.27
56668;BME280;42542;48.360;10.958;2022-07-23T11:47:50;96260.47;;;27.34;52.27
56668;BME280;42542;48.360;10.958;2022-07-23T11:50:53;96264.34;;;27.38;52.96
56668;BME280;42542;48.360;10.958;2022-07-23T11:54:05;96251.47;;;27.44;53.65
56668;BME280;42542;48.360;10.958;2022-07-23T11:57:07;96244.91;;;27.50;54.34
56668;BME280;42542;48.360;10.958;2022-07-23T12:00:10;96241.66;;;27.53;53.54
56668;BME280;42542;48.360;10.958;2022-07-23T12:03:13;96238.38;;;27.56;53.32
56668;BME280;42542;48.360;10.958;2022-07-23T12:06:15;96244.69;;;27.56;53.15
56668;BME280;42542;48.360;10.958;2022-07-23T12:09:16;96232.06;;;27.61;53.54
56668;BME280;42542;48.360;10.958;2022-07-23T12:12:19;96222.75;;;27.67;54.08
56668;BME280;42542;48.360;10.958;2022-07-23T12:15:23;96213.47;;;27.73;52.30
56668;BME280;42542;48.360;10.958;2022-07-23T12:18:26;96219.25;;;27.86;53.40
56668;BME280;42542;48.360;10.958;2022-07-23T12:21:28;96221.44;;;27.89;52.71
56668;BME280;42542;48.360;10.958;2022-07-23T12:24:30;96232.72;;;27.88;52.28
56668;BME280;42542;48.360;10.958;2022-07-23T12:27:31;96233.50;;;27.73;52.19
56668;BME280;42542;48.360;10.958;2022-07-23T12:33:45;96237.50;;;27.50;52.23
56668;BME280;42542;48.360;10.958;2022-07-23T12:36:47;96252.31;;;27.49;53.38
56668;BME280;42542;48.360;10.958;2022-07-23T12:39:49;96251.81;;;27.52;53.01
56668;BME280;42542;48.360;10.958;2022-07-23T12:42:55;96243.59;;;27.57;53.08
56668;BME280;42542;48.360;10.958;2022-07-23T12:46:20;96247.25;;;27.83;53.27
56668;BME280;42542;48.360;10.958;2022-07-23T12:49:27;96244.56;;;28.04;52.28
56668;BME280;42542;48.360;10.958;2022-07-23T12:52:31;96250.69;;;28.26;52.19
56668;BME280;42542;48.360;10.958;2022-07-23T12:55:33;96247.69;;;28.38;51.83
56668;BME280;42542;48.360;10.958;2022-07-23T12:58:56;96247.41;;;28.44;52.04
56668;BME280;42542;48.360;10.958;2022-07-23T13:02:08;96260.03;;;28.40;51.37
56668;BME280;42542;48.360;10.958;2022-07-23T13:05:11;96250.97;;;28.40;51.66
56668;BME280;42542;48.360;10.958;2022-07-23T13:08:13;96249.88;;;28.46;51.92
56668;BME280;42542;48.360;10.958;2022-07-23T13:11:14;96253.19;;;28.48;51.64
56668;BME280;42542;48.360;10.958;2022-07-23T13:14:18;96253.19;;;28.43;50.40
56668;BME280;42542;48.360;10.958;2022-07-23T13:17:22;96250.16;;;28.39;50.82
56668;BME280;42542;48.360;10.958;2022-07-23T13:20:24;96240.81;;;28.30;51.13
56668;BME280;42542;48.360;10.958;2022-07-23T13:23:26;96252.06;;;28.28;51.54
56668;BME280;42542;48.360;10.958;2022-07-23T13:26:30;96253.16;;;28.27;51.17
56668;BME280;42542;48.360;10.958;2022-07-23T13:29:32;96255.91;;;28.22;51.49
56668;BME280;42542;48.360;10.958;2022-07-23T13:32:33;96255.84;;;28.12;51.39
56668;BME280;42542;48.360;10.958;2022-07-23T13:35:36;96259.38;;;27.97;51.77
56668;BME280;42542;48.360;10.958;2022-07-23T13:38:39;96263.47;;;27.85;52.00
56668;BME280;42542;48.360;10.958;2022-07-23T13:41:41;96259.94;;;28.00;53.05
56668;BME280;42542;48.360;10.958;2022-07-23T13:44:51;96257.31;;;28.30;52.31
56668;BME280;42542;48.360;10.958;2022-07-23T13:47:52;96258.69;;;28.58;51.80
56668;BME280;42542;48.360;10.958;2022-07-23T13:50:55;96254.31;;;28.82;50.94
56668;BME280;42542;48.360;10.958;2022-07-23T13:53:57;96248.25;;;28.95;50.34
56668;BME280;42542;48.360;10.958;2022-07-23T13:57:01;96247.97;;;28.97;49.58
56668;BME280;42542;48.360;10.958;2022-07-23T14:00:04;96247.16;;;28.91;48.75
56668;BME280;42542;48.360;10.958;2022-07-23T14:03:08;96237.53;;;28.79;48.57
56668;BME280;42542;48.360;10.958;2022-07-23T14:06:11;96243.00;;;28.63;48.18
56668;BME280;42542;48.360;10.958;2022-07-23T14:09:16;96236.94;;;28.46;48.13
56668;BME280;42542;48.360;10.958;2022-07-23T14:12:18;96243.81;;;28.28;48.72
56668;BME280;42542;48.360;10.958;2022-07-23T14:15:26;96249.03;;;28.20;49.13
56668;BME280;42542;48.360;10.958;2022-07-23T14:18:30;96248.69;;;28.06;49.40
56668;BME280;42542;48.360;10.958;2022-07-23T14:21:34;96245.38;;;27.94;50.08
56668;BME280;42542;48.360;10.958;2022-07-23T14:24:36;96236.00;;;27.90;51.10
56668;BME280;42542;48.360;10.958;2022-07-23T14:27:38;96241.25;;;27.96;50.99
56668;BME280;42542;48.360;10.958;2022-07-23T14:30:41;96238.28;;;28.08;50.59
56668;BME280;42542;48.360;10.958;2022-07-23T14:33:45;96241.91;;;28.34;50.94
56668;BME280;42542;48.360;10.958;2022-07-23T14:36:48;96238.63;;;28.57;49.77
56668;BME280;42542;48.360;10.958;2022-07-23T14:39:50;96223.47;;;28.70;48.46
56668;BME280;42542;48.360;10.958;2022-07-23T14:42:52;96229.56;;;28.77;47.77
56668;BME280;42542;48.360;10.958;2022-07-23T14:45:54;96222.66;;;28.85;47.34
56668;BME280;42542;48.360;10.958;2022-07-23T14:48:56;96226.22;;;29.00;46.85
56668;BME280;42542;48.360;10.958;2022-07-23T14:51:58;96234.72;;;29.14;44.93
56668;BME280;42542;48.360;10.958;2022-07-23T14:55:00;96229.19;;;29.19;45.03
56668;BME280;42542;48.360;10.958;2022-07-23T14:58:04;96231.44;;;29.17;44.83
56668;BME280;42542;48.360;10.958;2022-07-23T15:01:08;96242.16;;;29.03;44.34
56668;BME280;42542;48.360;10.958;2022-07-23T15:04:10;96246.31;;;28.70;43.96
56668;BME280;42542;48.360;10.958;2022-07-23T15:07:31;96236.94;;;28.46;44.00
56668;BME280;42542;48.360;10.958;2022-07-23T15:10:33;96252.34;;;28.27;44.49
56668;BME280;42542;48.360;10.958;2022-07-23T15:13:36;96251.72;;;28.10;45.31
56668;BME280;42542;48.360;10.958;2022-07-23T15:16:38;96248.13;;;27.94;45.79
56668;BME280;42542;48.360;10.958;2022-07-23T15:19:39;96254.94;;;27.81;46.46
56668;BME280;42542;48.360;10.958;2022-07-23T15:22:41;96264.50;;;27.69;46.46
56668;BME280;42542;48.360;10.958;2022-07-23T15:25:43;96254.88;;;27.61;47.10
56668;BME280;42542;48.360;10.958;2022-07-23T15:28:51;96261.34;;;27.45;47.79
56668;BME280;42542;48.360;10.958;2022-07-23T15:31:52;96265.16;;;27.34;48.37
56668;BME280;42542;48.360;10.958;2022-07-23T15:34:59;96279.13;;;27.27;48.48
56668;BME280;42542;48.360;10.958;2022-07-23T15:38:01;96280.69;;;27.18;48.97
56668;BME280;42542;48.360;10.958;2022-07-23T15:41:13;96286.13;;;27.08;49.72
56668;BME280;42542;48.360;10.958;2022-07-23T15:44:15;96281.66;;;26.97;50.05
56668;BME280;42542;48.360;10.958;2022-07-23T15:47:29;96282.72;;;26.91;50.18
56668;BME280;42542;48.360;10.958;2022-07-23T15:50:31;96276.34;;;26.85;50.84
56668;BME280;42542;48.360;10.958;2022-07-23T15:53:33;96267.78;;;26.81;50.84
56668;BME280;42542;48.360;10.958;2022-07-23T15:56:55;96241.75;;;26.79;51.22
56668;BME280;42542;48.360;10.958;2022-07-23T15:59:57;96234.34;;;26.79;51.00
56668;BME280;42542;48.360;10.958;2022-07-23T16:02:59;96244.78;;;26.88;50.77
56668;BME280;42542;48.360;10.958;2022-07-23T16:06:07;96247.66;;;27.03;50.35
56668;BME280;42542;48.360;10.958;2022-07-23T16:09:18;96233.53;;;27.21;50.25
56668;BME280;42542;48.360;10.958;2022-07-23T16:12:20;96247.09;;;27.48;49.96
56668;BME280;42542;48.360;10.958;2022-07-23T16:15:23;96247.50;;;27.72;49.42
56668;BME280;42542;48.360;10.958;2022-07-23T16:18:24;96253.31;;;27.90;49.38
56668;BME280;42542;48.360;10.958;2022-07-23T16:21:26;96253.09;;;28.07;49.06
56668;BME280;42542;48.360;10.958;2022-07-23T16:24:28;96247.94;;;28.16;48.29
56668;BME280;42542;48.360;10.958;2022-07-23T16:27:36;96257.00;;;28.16;46.89